Time;durP1;ratioP1;P1;durP2;ratioP2;P2;SDS_P1;SDS_P2;PMS_P1;PMS_P2;Temp;Humidity;BMP_temperature;BMP_pressure;BME280_temperature;BME280_humidity;BME280_pressure;Samples;Min_cycle;Max_cycle;Signal;HPM_P1;HPM_P2
2023/12/13 00:00:12;;;;;;;105.10;53.70;;;;;;;;;;109552;1251;59111;-81
2023/12/13 00:02:59;;;;;;;99.10;49.10;;;;;;;;;;109595;1250;58895;-79
2023/12/13 00:05:25;;;;;;;94.00;46.40;;;;;;;;;;109560;1253;62660;-78
2023/12/13 00:07:52;;;;;;;87.40;44.90;;;;;;;;;;109570;1251;58889;-79
2023/12/13 00:10:18;;;;;;;83.60;44.30;;;;;;;;;;109553;1250;59787;-79
2023/12/13 00:12:45;;;;;;;109.30;53.50;;;;;;;;;;107622;1251;61706;-79
2023/12/13 00:15:12;;;;;;;102.00;56.00;;;;;;;;;;107191;1250;59742;-78
2023/12/13 00:17:38;;;;;;;120.10;63.60;;;;;;;;;;107159;1253;61574;-79
2023/12/13 00:20:05;;;;;;;146.00;69.60;;;;;;;;;;107186;1253;60850;-78
2023/12/13 00:22:32;;;;;;;161.80;80.40;;;;;;;;;;107174;1253;60117;-79
2023/12/13 00:24:58;;;;;;;146.60;72.70;;;;;;;;;;107089;1251;59745;-78
2023/12/13 00:27:25;;;;;;;153.80;75.40;;;;;;;;;;107674;1250;59562;-78
2023/12/13 00:29:52;;;;;;;125.00;67.00;;;;;;;;;;107954;1251;61669;-78
2023/12/13 00:32:18;;;;;;;119.10;58.20;;;;;;;;;;108024;1251;59230;-79
2023/12/13 00:34:45;;;;;;;130.10;68.00;;;;;;;;;;108252;1251;59535;-78
2023/12/13 00:37:11;;;;;;;117.40;56.00;;;;;;;;;;108677;1251;59762;-78
2023/12/13 00:39:38;;;;;;;96.60;51.40;;;;;;;;;;108845;1252;59889;-78
2023/12/13 00:42:05;;;;;;;91.20;46.60;;;;;;;;;;108042;1253;59714;-78
2023/12/13 00:44:31;;;;;;;104.20;50.30;;;;;;;;;;108035;1253;59708;-78
2023/12/13 00:46:58;;;;;;;108.80;54.70;;;;;;;;;;108063;1251;60353;-78
2023/12/13 00:49:24;;;;;;;107.90;52.50;;;;;;;;;;107846;1253;59863;-79
2023/12/13 00:51:51;;;;;;;107.50;50.40;;;;;;;;;;107124;1255;59733;-79
2023/12/13 00:54:17;;;;;;;113.20;53.70;;;;;;;;;;107085;1254;60652;-79
2023/12/13 00:56:44;;;;;;;89.70;50.00;;;;;;;;;;107112;1254;60737;-79
2023/12/13 00:59:10;;;;;;;108.80;52.50;;;;;;;;;;106944;1253;61167;-79
2023/12/13 01:01:43;;;;;;;95.30;47.20;;;;;;;;;;106934;1253;59686;-79
2023/12/13 01:04:10;;;;;;;97.30;50.90;;;;;;;;;;106942;1252;61994;-79
2023/12/13 01:06:36;;;;;;;91.60;46.10;;;;;;;;;;106935;1255;62873;-79
2023/12/13 01:09:03;;;;;;;96.50;51.60;;;;;;;;;;106907;1253;59786;-78
2023/12/13 01:11:30;;;;;;;88.60;46.10;;;;;;;;;;106912;1253;60753;-79
2023/12/13 01:13:56;;;;;;;96.20;49.60;;;;;;;;;;106899;1251;59798;-78
2023/12/13 01:16:23;;;;;;;106.90;54.60;;;;;;;;;;106942;1253;60001;-78
2023/12/13 01:18:49;;;;;;;107.00;58.40;;;;;;;;;;106958;1253;59667;-78
2023/12/13 01:21:15;;;;;;;120.00;59.20;;;;;;;;;;106898;1251;59824;-78
2023/12/13 01:23:42;;;;;;;124.20;58.70;;;;;;;;;;107038;1251;60846;-78
2023/12/13 01:26:09;;;;;;;113.50;56.10;;;;;;;;;;106976;1250;59899;-78
2023/12/13 01:28:35;;;;;;;122.30;59.30;;;;;;;;;;107067;1251;60970;-78
2023/12/13 01:31:08;;;;;;;112.90;56.00;;;;;;;;;;107049;1253;59892;-79
2023/12/13 01:33:35;;;;;;;122.60;62.30;;;;;;;;;;107813;1251;59636;-78
2023/12/13 01:36:02;;;;;;;122.40;62.70;;;;;;;;;;108710;1251;59356;-78
2023/12/13 01:38:28;;;;;;;122.20;60.50;;;;;;;;;;107065;1253;60310;-78
2023/12/13 01:40:55;;;;;;;125.80;65.10;;;;;;;;;;107007;1253;59490;-78
2023/12/13 01:43:24;;;;;;;115.00;61.50;;;;;;;;;;107091;1252;59861;-78
2023/12/13 01:45:51;;;;;;;118.70;61.10;;;;;;;;;;107017;1253;59806;-79
2023/12/13 01:48:18;;;;;;;109.30;56.90;;;;;;;;;;106976;1251;60353;-78
2023/12/13 01:50:44;;;;;;;118.80;57.80;;;;;;;;;;107098;1252;59651;-78
2023/12/13 01:53:11;;;;;;;109.90;59.30;;;;;;;;;;107102;1253;61072;-78
2023/12/13 01:55:38;;;;;;;105.60;57.60;;;;;;;;;;107087;1253;60936;-78
2023/12/13 01:58:04;;;;;;;88.10;45.20;;;;;;;;;;107014;1253;60852;-78
2023/12/13 02:00:31;;;;;;;80.60;42.80;;;;;;;;;;106893;1253;59761;-79
2023/12/13 02:02:57;;;;;;;87.20;43.40;;;;;;;;;;106874;1253;59819;-79
2023/12/13 02:05:26;;;;;;;94.00;46.20;;;;;;;;;;106919;1251;60856;-79
2023/12/13 02:07:52;;;;;;;86.40;43.30;;;;;;;;;;106957;1253;61908;-79
2023/12/13 02:10:19;;;;;;;84.10;46.70;;;;;;;;;;106924;1253;60718;-79
2023/12/13 02:12:45;;;;;;;79.30;41.50;;;;;;;;;;106888;1253;59768;-78
2023/12/13 02:15:12;;;;;;;100.60;48.10;;;;;;;;;;106935;1253;59515;-78
2023/12/13 02:17:48;;;;;;;93.90;48.40;;;;;;;;;;106844;1254;59700;-79
2023/12/13 02:20:14;;;;;;;104.50;59.60;;;;;;;;;;106959;1251;61725;-79
2023/12/13 02:22:40;;;;;;;89.80;50.10;;;;;;;;;;107076;1251;59235;-78
2023/12/13 02:25:10;;;;;;;95.70;49.00;;;;;;;;;;109022;1251;59374;-78
2023/12/13 02:27:37;;;;;;;86.50;46.60;;;;;;;;;;109098;1251;59255;-78
2023/12/13 02:30:04;;;;;;;91.60;47.90;;;;;;;;;;107082;1254;60947;-79
2023/12/13 02:32:31;;;;;;;87.50;46.80;;;;;;;;;;107090;1252;62535;-79
2023/12/13 02:34:57;;;;;;;102.50;49.70;;;;;;;;;;107027;1251;59909;-78
2023/12/13 02:37:24;;;;;;;101.40;51.40;;;;;;;;;;107063;1251;59842;-78
2023/12/13 02:39:50;;;;;;;108.70;60.90;;;;;;;;;;107044;1253;61923;-78
2023/12/13 02:42:17;;;;;;;116.80;63.80;;;;;;;;;;107105;1253;60767;-78
2023/12/13 02:44:43;;;;;;;104.80;59.00;;;;;;;;;;107061;1251;60800;-78
2023/12/13 02:47:10;;;;;;;86.70;50.00;;;;;;;;;;107069;1253;59768;-78
2023/12/13 02:49:36;;;;;;;96.00;49.00;;;;;;;;;;107013;1253;59761;-78
2023/12/13 02:52:03;;;;;;;84.90;44.10;;;;;;;;;;107012;1251;60850;-78
2023/12/13 02:54:30;;;;;;;88.40;46.90;;;;;;;;;;107052;1253;60713;-78
2023/12/13 02:56:56;;;;;;;85.90;42.40;;;;;;;;;;107032;1253;60601;-78
2023/12/13 02:59:23;;;;;;;77.20;37.40;;;;;;;;;;106967;1253;60872;-78
2023/12/13 03:01:49;;;;;;;68.90;37.70;;;;;;;;;;106894;1257;59792;-78
2023/12/13 03:04:16;;;;;;;73.20;37.90;;;;;;;;;;106988;1253;59817;-78
2023/12/13 03:06:42;;;;;;;73.50;38.10;;;;;;;;;;106925;1255;59851;-78
2023/12/13 03:09:09;;;;;;;77.60;42.00;;;;;;;;;;106943;1253;59810;-79
2023/12/13 03:11:35;;;;;;;104.40;53.10;;;;;;;;;;106926;1253;59800;-78
2023/12/13 03:14:02;;;;;;;91.10;48.60;;;;;;;;;;106957;1253;59826;-79
2023/12/13 03:16:28;;;;;;;93.60;45.00;;;;;;;;;;106849;1253;59870;-79
2023/12/13 03:18:55;;;;;;;81.20;45.20;;;;;;;;;;106916;1253;60201;-78
2023/12/13 03:21:21;;;;;;;112.90;52.10;;;;;;;;;;106916;1252;59765;-79
2023/12/13 03:23:48;;;;;;;126.10;61.90;;;;;;;;;;108005;1251;60723;-79
2023/12/13 03:26:14;;;;;;;113.10;56.00;;;;;;;;;;109012;1252;58847;-79
2023/12/13 03:28:41;;;;;;;99.20;50.00;;;;;;;;;;107009;1253;60948;-79
2023/12/13 03:31:08;;;;;;;88.40;49.30;;;;;;;;;;107035;1251;59822;-79
2023/12/13 03:33:34;;;;;;;84.60;45.80;;;;;;;;;;107063;1251;61553;-78
2023/12/13 03:36:01;;;;;;;88.20;43.70;;;;;;;;;;106975;1251;59835;-78
2023/12/13 03:38:27;;;;;;;85.70;45.80;;;;;;;;;;106989;1253;60773;-78
2023/12/13 03:40:54;;;;;;;90.70;47.40;;;;;;;;;;107046;1251;59841;-79
2023/12/13 03:43:20;;;;;;;75.80;43.20;;;;;;;;;;106997;1254;60736;-78
2023/12/13 03:45:47;;;;;;;85.70;44.70;;;;;;;;;;107017;1253;59218;-78
2023/12/13 03:48:13;;;;;;;110.30;59.50;;;;;;;;;;107043;1251;59506;-78
2023/12/13 03:50:40;;;;;;;99.60;56.50;;;;;;;;;;106989;1254;60922;-78
2023/12/13 03:53:06;;;;;;;118.10;59.40;;;;;;;;;;107063;1254;59833;-78
2023/12/13 03:55:33;;;;;;;113.70;57.90;;;;;;;;;;107000;1251;60852;-78
2023/12/13 03:57:59;;;;;;;119.60;59.20;;;;;;;;;;107012;1253;60965;-78
2023/12/13 04:00:26;;;;;;;122.50;62.10;;;;;;;;;;106916;1253;60874;-78
2023/12/13 04:02:52;;;;;;;122.90;59.60;;;;;;;;;;106990;1255;59851;-78
2023/12/13 04:05:19;;;;;;;133.50;67.50;;;;;;;;;;106935;1251;59732;-79
2023/12/13 04:07:45;;;;;;;92.50;47.70;;;;;;;;;;106917;1253;59755;-78
2023/12/13 04:10:12;;;;;;;121.90;65.50;;;;;;;;;;106860;1253;60726;-78
2023/12/13 04:12:38;;;;;;;130.40;65.20;;;;;;;;;;106909;1252;59812;-80
2023/12/13 04:15:05;;;;;;;149.10;71.40;;;;;;;;;;106909;1253;60397;-78
2023/12/13 04:17:32;;;;;;;146.40;69.60;;;;;;;;;;109463;1251;59337;-79
2023/12/13 04:19:58;;;;;;;216.30;89.30;;;;;;;;;;109453;1253;58872;-79
2023/12/13 04:22:25;;;;;;;207.80;88.90;;;;;;;;;;109511;1253;62337;-79
2023/12/13 04:24:52;;;;;;;205.00;90.90;;;;;;;;;;109555;1251;59236;-79
2023/12/13 04:27:18;;;;;;;180.10;82.30;;;;;;;;;;109624;1251;59381;-79
2023/12/13 04:29:45;;;;;;;175.00;80.40;;;;;;;;;;109536;1251;58987;-79
2023/12/13 04:32:11;;;;;;;164.20;74.80;;;;;;;;;;109611;1254;59086;-79
2023/12/13 04:34:38;;;;;;;142.90;71.50;;;;;;;;;;109604;1250;59102;-79
2023/12/13 04:37:04;;;;;;;146.50;70.20;;;;;;;;;;109565;1251;59002;-79
2023/12/13 04:39:31;;;;;;;141.50;70.20;;;;;;;;;;108783;1251;59040;-79
2023/12/13 04:41:57;;;;;;;144.90;66.50;;;;;;;;;;109584;1253;58819;-79
2023/12/13 04:44:27;;;;;;;146.10;69.80;;;;;;;;;;109601;1251;59082;-79
2023/12/13 04:46:54;;;;;;;136.70;71.10;;;;;;;;;;109613;1251;61903;-78
2023/12/13 04:49:21;;;;;;;133.10;63.70;;;;;;;;;;109549;1251;58940;-78
2023/12/13 04:51:48;;;;;;;138.10;62.60;;;;;;;;;;109602;1252;58855;-78
2023/12/13 04:54:14;;;;;;;138.40;63.70;;;;;;;;;;108732;1250;59519;-78
2023/12/13 04:56:41;;;;;;;145.10;66.10;;;;;;;;;;107108;1251;60866;-78
2023/12/13 04:59:07;;;;;;;129.10;61.80;;;;;;;;;;108329;1253;61520;-78
2023/12/13 05:01:34;;;;;;;106.70;52.40;;;;;;;;;;109607;1251;58822;-78
2023/12/13 05:04:00;;;;;;;107.40;45.10;;;;;;;;;;109534;1251;59308;-78
2023/12/13 05:06:27;;;;;;;79.20;41.20;;;;;;;;;;109557;1251;59601;-79
2023/12/13 05:08:54;;;;;;;92.90;42.30;;;;;;;;;;109604;1251;59017;-79
2023/12/13 05:11:20;;;;;;;74.70;34.20;;;;;;;;;;108925;1254;59641;-78
2023/12/13 05:13:47;;;;;;;64.30;33.90;;;;;;;;;;107135;1251;60737;-78
2023/12/13 05:16:13;;;;;;;50.00;26.90;;;;;;;;;;107024;1253;59831;-78
2023/12/13 05:18:39;;;;;;;46.40;25.90;;;;;;;;;;107074;1254;61117;-78
2023/12/13 05:21:06;;;;;;;51.60;27.10;;;;;;;;;;107116;1253;60985;-78
2023/12/13 05:23:33;;;;;;;53.40;31.50;;;;;;;;;;107786;1251;59820;-78
2023/12/13 05:26:00;;;;;;;53.20;31.60;;;;;;;;;;109366;1254;58910;-78
2023/12/13 05:28:26;;;;;;;57.40;28.60;;;;;;;;;;107082;1251;60883;-78
2023/12/13 05:30:53;;;;;;;43.30;25.70;;;;;;;;;;107022;1251;60808;-79
2023/12/13 05:33:19;;;;;;;50.00;28.00;;;;;;;;;;107054;1253;60798;-79
2023/12/13 05:35:45;;;;;;;45.80;25.90;;;;;;;;;;106933;1254;59826;-79
2023/12/13 05:38:12;;;;;;;47.50;25.00;;;;;;;;;;106995;1255;61015;-79
2023/12/13 05:40:39;;;;;;;45.40;24.50;;;;;;;;;;106984;1251;60745;-79
2023/12/13 05:43:05;;;;;;;42.90;23.30;;;;;;;;;;107042;1253;59799;-78
2023/12/13 05:45:31;;;;;;;40.30;24.50;;;;;;;;;;107045;1255;59892;-79
2023/12/13 05:47:58;;;;;;;49.60;27.60;;;;;;;;;;107044;1256;61014;-79
2023/12/13 05:50:24;;;;;;;51.90;29.10;;;;;;;;;;107059;1251;60808;-78
2023/12/13 05:52:51;;;;;;;57.70;33.50;;;;;;;;;;107036;1254;59797;-79
2023/12/13 05:55:17;;;;;;;52.20;28.60;;;;;;;;;;107036;1251;59948;-78
2023/12/13 05:57:44;;;;;;;55.50;33.40;;;;;;;;;;107080;1255;60887;-79
2023/12/13 06:00:11;;;;;;;68.20;39.10;;;;;;;;;;106988;1256;59221;-78
2023/12/13 06:02:38;;;;;;;83.10;44.00;;;;;;;;;;108872;1251;59987;-78
2023/12/13 06:05:04;;;;;;;79.40;41.10;;;;;;;;;;107319;1251;60106;-79
2023/12/13 06:07:31;;;;;;;62.40;37.70;;;;;;;;;;106980;1252;59846;-79
2023/12/13 06:09:57;;;;;;;59.40;32.00;;;;;;;;;;107059;1251;59739;-79
2023/12/13 06:12:24;;;;;;;46.50;27.50;;;;;;;;;;107044;1250;61081;-79
2023/12/13 06:14:50;;;;;;;47.60;27.40;;;;;;;;;;107136;1251;60969;-79
2023/12/13 06:17:17;;;;;;;47.30;27.50;;;;;;;;;;107017;1256;60440;-79
2023/12/13 06:19:43;;;;;;;58.40;32.60;;;;;;;;;;107013;1251;59678;-79
2023/12/13 06:22:11;;;;;;;64.10;33.00;;;;;;;;;;107056;1251;59724;-79
2023/12/13 06:24:37;;;;;;;62.80;34.80;;;;;;;;;;109564;1254;62894;-79
2023/12/13 06:27:04;;;;;;;67.90;37.30;;;;;;;;;;107543;1251;59798;-79
2023/12/13 06:29:30;;;;;;;66.90;35.20;;;;;;;;;;107037;1255;62025;-79
2023/12/13 06:31:57;;;;;;;63.70;38.50;;;;;;;;;;106895;1251;169220;-79
2023/12/13 06:34:23;;;;;;;75.30;41.50;;;;;;;;;;107095;1256;59833;-80
2023/12/13 06:36:50;;;;;;;72.20;35.80;;;;;;;;;;107071;1253;61102;-79
2023/12/13 06:39:16;;;;;;;56.70;32.90;;;;;;;;;;107010;1251;61142;-79
2023/12/13 06:41:44;;;;;;;69.60;35.70;;;;;;;;;;106993;1251;61830;-79
2023/12/13 06:44:11;;;;;;;113.00;55.50;;;;;;;;;;106982;1251;59882;-79
2023/12/13 06:46:37;;;;;;;105.40;54.90;;;;;;;;;;107021;1251;59806;-79
2023/12/13 06:49:04;;;;;;;114.40;61.30;;;;;;;;;;106990;1251;62729;-79
2023/12/13 06:51:31;;;;;;;100.00;54.00;;;;;;;;;;107043;1251;60802;-79
2023/12/13 06:53:57;;;;;;;108.10;60.30;;;;;;;;;;107082;1251;60772;-79
2023/12/13 06:56:24;;;;;;;107.30;62.80;;;;;;;;;;107084;1254;59831;-79
2023/12/13 06:58:50;;;;;;;105.50;58.30;;;;;;;;;;107110;1251;59199;-79
2023/12/13 07:01:17;;;;;;;118.40;64.40;;;;;;;;;;107060;1251;59745;-79
2023/12/13 07:03:43;;;;;;;130.60;76.60;;;;;;;;;;107080;1251;60862;-79
2023/12/13 07:06:10;;;;;;;107.10;60.30;;;;;;;;;;107300;1251;60734;-79
2023/12/13 07:08:37;;;;;;;102.70;58.80;;;;;;;;;;107162;1251;60872;-79
2023/12/13 07:11:03;;;;;;;105.50;59.30;;;;;;;;;;107179;1251;59798;-79
2023/12/13 07:13:30;;;;;;;109.50;68.20;;;;;;;;;;107078;1251;62522;-79
2023/12/13 07:15:57;;;;;;;109.00;67.20;;;;;;;;;;107158;1251;60761;-79
2023/12/13 07:18:25;;;;;;;101.00;60.70;;;;;;;;;;107088;1251;61207;-79
2023/12/13 07:20:52;;;;;;;86.00;51.40;;;;;;;;;;107513;1250;60968;-79
2023/12/13 07:23:19;;;;;;;85.50;48.40;;;;;;;;;;107828;1250;59153;-79
2023/12/13 07:25:45;;;;;;;89.40;50.80;;;;;;;;;;107466;1251;61401;-79
2023/12/13 07:28:13;;;;;;;89.60;49.10;;;;;;;;;;109542;1251;59182;-79
2023/12/13 07:30:41;;;;;;;88.10;48.60;;;;;;;;;;109512;1251;60874;-79
2023/12/13 07:33:08;;;;;;;102.70;55.10;;;;;;;;;;109440;1251;59067;-79
2023/12/13 07:35:35;;;;;;;95.90;55.10;;;;;;;;;;109465;1251;59161;-79
2023/12/13 07:38:03;;;;;;;100.20;57.80;;;;;;;;;;109482;1251;61763;-79
2023/12/13 07:40:31;;;;;;;114.60;59.00;;;;;;;;;;109430;1251;59605;-79
2023/12/13 07:42:57;;;;;;;109.60;58.00;;;;;;;;;;109434;1251;59528;-80
2023/12/13 07:45:24;;;;;;;148.50;71.90;;;;;;;;;;107928;1251;59264;-80
2023/12/13 07:47:50;;;;;;;149.60;76.10;;;;;;;;;;107528;1251;59805;-79
2023/12/13 07:50:16;;;;;;;132.50;73.40;;;;;;;;;;109520;1251;59202;-79
2023/12/13 07:52:43;;;;;;;129.60;72.90;;;;;;;;;;109538;1251;59132;-79
2023/12/13 07:55:10;;;;;;;129.30;70.30;;;;;;;;;;109450;1254;60229;-79
2023/12/13 07:57:36;;;;;;;125.70;69.80;;;;;;;;;;109470;1250;58921;-79
2023/12/13 08:00:04;;;;;;;128.50;71.10;;;;;;;;;;109551;1251;59054;-79
2023/12/13 08:02:31;;;;;;;191.70;91.50;;;;;;;;;;109518;1251;61449;-79
2023/12/13 08:04:58;;;;;;;164.40;84.20;;;;;;;;;;109509;1251;58856;-79
2023/12/13 08:07:24;;;;;;;117.90;65.30;;;;;;;;;;109460;1251;59698;-80
2023/12/13 08:09:53;;;;;;;110.80;62.70;;;;;;;;;;109437;1251;59062;-79
2023/12/13 08:12:19;;;;;;;129.70;71.70;;;;;;;;;;109504;1251;58944;-79
2023/12/13 08:14:46;;;;;;;120.80;61.20;;;;;;;;;;109482;1251;59246;-80
2023/12/13 08:17:12;;;;;;;111.30;54.40;;;;;;;;;;108492;1251;59495;-80
2023/12/13 08:19:39;;;;;;;105.20;57.00;;;;;;;;;;107412;1254;60893;-78
2023/12/13 08:22:05;;;;;;;105.80;56.60;;;;;;;;;;107532;1251;62056;-79
2023/12/13 08:24:32;;;;;;;97.40;55.40;;;;;;;;;;107393;1251;59705;-79
2023/12/13 08:26:59;;;;;;;108.70;54.50;;;;;;;;;;107372;1251;63005;-79
2023/12/13 08:29:25;;;;;;;156.90;74.20;;;;;;;;;;107390;1251;59938;-79
2023/12/13 08:31:52;;;;;;;152.00;77.30;;;;;;;;;;107517;1251;59228;-79
2023/12/13 08:34:18;;;;;;;216.90;108.30;;;;;;;;;;107312;1251;59818;-78
2023/12/13 08:36:45;;;;;;;288.40;136.50;;;;;;;;;;107243;1251;60773;-79
2023/12/13 08:39:11;;;;;;;258.30;126.20;;;;;;;;;;107471;1251;59910;-79
2023/12/13 08:41:38;;;;;;;231.40;118.70;;;;;;;;;;107589;1254;59534;-79
2023/12/13 08:44:04;;;;;;;222.40;115.00;;;;;;;;;;107307;1254;59198;-79
2023/12/13 08:46:31;;;;;;;228.00;114.20;;;;;;;;;;107486;1250;59350;-79
2023/12/13 08:48:57;;;;;;;175.80;94.80;;;;;;;;;;107467;1254;59850;-79
2023/12/13 08:51:24;;;;;;;249.40;132.40;;;;;;;;;;107445;1251;60418;-79
2023/12/13 08:53:54;;;;;;;146.10;77.90;;;;;;;;;;107397;1251;59335;-79
2023/12/13 08:56:21;;;;;;;119.30;59.60;;;;;;;;;;107262;1251;60854;-79
2023/12/13 08:58:47;;;;;;;106.70;57.10;;;;;;;;;;107469;1251;60862;-79
2023/12/13 09:01:14;;;;;;;105.40;56.30;;;;;;;;;;107624;1251;59821;-79
2023/12/13 09:03:40;;;;;;;105.90;57.80;;;;;;;;;;107513;1257;59404;-79
2023/12/13 09:06:08;;;;;;;111.30;64.50;;;;;;;;;;107484;1251;61408;-79
2023/12/13 09:08:35;;;;;;;109.90;62.00;;;;;;;;;;107549;1253;59815;-79
2023/12/13 09:11:02;;;;;;;123.80;73.60;;;;;;;;;;107603;1250;59629;-80
2023/12/13 09:13:29;;;;;;;147.20;80.90;;;;;;;;;;107511;1254;59774;-80
2023/12/13 09:15:55;;;;;;;125.80;68.80;;;;;;;;;;107634;1250;59684;-80
2023/12/13 09:18:22;;;;;;;103.80;58.60;;;;;;;;;;107573;1251;61906;-79
2023/12/13 09:20:48;;;;;;;96.70;54.40;;;;;;;;;;107646;1251;59970;-79
2023/12/13 09:23:21;;;;;;;107.10;61.40;;;;;;;;;;107713;1254;60971;-79
2023/12/13 09:25:48;;;;;;;128.20;71.70;;;;;;;;;;107737;1251;60964;-79
2023/12/13 09:28:14;;;;;;;127.50;71.90;;;;;;;;;;109458;1254;60825;-79
2023/12/13 09:30:40;;;;;;;149.90;79.10;;;;;;;;;;109454;1251;59367;-79
2023/12/13 09:33:07;;;;;;;126.90;74.70;;;;;;;;;;109463;1251;59434;-79
2023/12/13 09:35:34;;;;;;;125.30;71.90;;;;;;;;;;109407;1251;59205;-79
2023/12/13 09:38:00;;;;;;;173.90;95.50;;;;;;;;;;109462;1251;58934;-79
2023/12/13 09:40:27;;;;;;;150.80;84.10;;;;;;;;;;109471;1251;63286;-80
2023/12/13 09:42:53;;;;;;;130.10;73.70;;;;;;;;;;109453;1251;59174;-79
2023/12/13 09:45:20;;;;;;;91.40;52.40;;;;;;;;;;109453;1254;58935;-79
2023/12/13 09:47:47;;;;;;;82.20;46.50;;;;;;;;;;109491;1251;59242;-79
2023/12/13 09:50:14;;;;;;;88.70;49.80;;;;;;;;;;109464;1250;58874;-80
2023/12/13 09:52:41;;;;;;;93.50;52.50;;;;;;;;;;109463;1251;62850;-80
2023/12/13 09:55:08;;;;;;;105.00;53.30;;;;;;;;;;109468;1251;59041;-79
2023/12/13 09:57:34;;;;;;;113.70;62.60;;;;;;;;;;109454;1251;60390;-79
2023/12/13 10:00:01;;;;;;;116.20;64.10;;;;;;;;;;108781;1251;60239;-79
2023/12/13 10:02:28;;;;;;;137.10;77.20;;;;;;;;;;109448;1250;59191;-79
2023/12/13 10:04:54;;;;;;;175.60;98.00;;;;;;;;;;109495;1251;59522;-79
2023/12/13 10:07:21;;;;;;;142.00;84.40;;;;;;;;;;109477;1251;59173;-79
2023/12/13 10:09:48;;;;;;;116.20;72.50;;;;;;;;;;108070;1251;60798;-79
2023/12/13 10:12:16;;;;;;;95.90;60.80;;;;;;;;;;107388;1251;59803;-79
2023/12/13 10:14:45;;;;;;;95.70;58.30;;;;;;;;;;107536;1254;60977;-79
2023/12/13 10:17:11;;;;;;;97.90;56.90;;;;;;;;;;107584;1251;62884;-79
2023/12/13 10:19:38;;;;;;;133.60;66.30;;;;;;;;;;107547;1251;60771;-79
2023/12/13 10:22:07;;;;;;;151.00;73.40;;;;;;;;;;107686;1251;59818;-79
2023/12/13 10:24:33;;;;;;;145.70;74.10;;;;;;;;;;109150;1251;59333;-79
2023/12/13 10:27:00;;;;;;;137.60;75.40;;;;;;;;;;109455;1251;59130;-79
2023/12/13 10:29:26;;;;;;;148.40;79.10;;;;;;;;;;109465;1251;59379;-79
2023/12/13 10:31:53;;;;;;;145.70;74.50;;;;;;;;;;109460;1251;59325;-80
2023/12/13 10:34:19;;;;;;;132.70;73.40;;;;;;;;;;109417;1250;58996;-79
2023/12/13 10:36:47;;;;;;;138.90;75.10;;;;;;;;;;109436;1251;60554;-79
2023/12/13 10:39:14;;;;;;;104.00;57.40;;;;;;;;;;109478;1251;58936;-79
2023/12/13 10:41:44;;;;;;;80.10;48.70;;;;;;;;;;109438;1250;61957;-79
2023/12/13 10:44:15;;;;;;;115.50;64.70;;;;;;;;;;109510;1251;59146;-80
2023/12/13 10:46:46;;;;;;;124.70;71.00;;;;;;;;;;109471;1251;59474;-79
2023/12/13 10:49:16;;;;;;;82.50;49.50;;;;;;;;;;109420;1250;59229;-79
2023/12/13 10:51:43;;;;;;;65.90;38.70;;;;;;;;;;109429;1251;58894;-79
2023/12/13 10:54:13;;;;;;;48.40;31.20;;;;;;;;;;107461;1251;61820;-79
2023/12/13 10:56:39;;;;;;;50.80;31.20;;;;;;;;;;107561;1251;59748;-79
2023/12/13 10:59:07;;;;;;;50.00;31.00;;;;;;;;;;107518;1251;60956;-79
2023/12/13 11:01:33;;;;;;;43.10;28.50;;;;;;;;;;107511;1250;60878;-79
2023/12/13 11:04:00;;;;;;;42.70;29.70;;;;;;;;;;107392;1251;59743;-79
2023/12/13 11:06:27;;;;;;;41.70;27.10;;;;;;;;;;107582;1251;60660;-80
2023/12/13 11:08:54;;;;;;;40.90;25.40;;;;;;;;;;107584;1253;59724;-80
2023/12/13 11:11:25;;;;;;;45.80;26.10;;;;;;;;;;107733;1250;59750;-80
2023/12/13 11:13:52;;;;;;;45.80;27.20;;;;;;;;;;107625;1251;60263;-79
2023/12/13 11:16:20;;;;;;;41.10;24.70;;;;;;;;;;107705;1251;59901;-79
2023/12/13 11:18:48;;;;;;;45.00;26.10;;;;;;;;;;107399;1251;61904;-80
2023/12/13 11:21:25;;;;;;;36.20;22.80;;;;;;;;;;107543;1252;59783;-79
2023/12/13 11:23:52;;;;;;;37.60;24.30;;;;;;;;;;107306;1251;59845;-79
2023/12/13 11:26:19;;;;;;;36.50;23.30;;;;;;;;;;107227;1250;61945;-79
2023/12/13 11:28:50;;;;;;;37.20;23.40;;;;;;;;;;107430;1251;61025;-79
2023/12/13 11:31:22;;;;;;;63.00;33.00;;;;;;;;;;107555;1251;61949;-79
2023/12/13 11:33:50;;;;;;;50.70;33.40;;;;;;;;;;107388;1252;61073;-79
2023/12/13 11:36:17;;;;;;;65.50;41.10;;;;;;;;;;107263;1251;60836;-79
2023/12/13 11:38:44;;;;;;;100.20;57.30;;;;;;;;;;107390;1251;59741;-79
2023/12/13 11:41:10;;;;;;;66.30;43.00;;;;;;;;;;107557;1250;61478;-79
2023/12/13 11:43:37;;;;;;;87.40;52.60;;;;;;;;;;107612;1250;61995;-79
2023/12/13 11:46:03;;;;;;;184.70;98.40;;;;;;;;;;107249;1251;61673;-79
2023/12/13 11:48:30;;;;;;;130.60;74.20;;;;;;;;;;107675;1250;59770;-80
2023/12/13 11:50:56;;;;;;;77.60;47.90;;;;;;;;;;107754;1251;61779;-79
2023/12/13 11:53:23;;;;;;;157.60;90.90;;;;;;;;;;107684;1253;59421;-79
2023/12/13 11:55:50;;;;;;;105.80;67.60;;;;;;;;;;107583;1251;62928;-79
2023/12/13 11:58:16;;;;;;;135.70;86.00;;;;;;;;;;107604;1251;59800;-80
2023/12/13 12:00:43;;;;;;;268.30;137.50;;;;;;;;;;107809;1253;59545;-80
2023/12/13 12:03:10;;;;;;;200.40;121.80;;;;;;;;;;107698;1251;60803;-80
2023/12/13 12:05:36;;;;;;;96.20;62.60;;;;;;;;;;107474;1254;61125;-80
2023/12/13 12:08:05;;;;;;;67.10;48.90;;;;;;;;;;107490;1251;59817;-80
2023/12/13 12:10:33;;;;;;;69.40;45.90;;;;;;;;;;107396;1251;59557;-79
2023/12/13 12:13:00;;;;;;;78.10;51.20;;;;;;;;;;107648;1251;60857;-80
2023/12/13 12:15:27;;;;;;;67.80;45.00;;;;;;;;;;107412;1251;59909;-79
2023/12/13 12:17:56;;;;;;;109.50;60.70;;;;;;;;;;107342;1251;59702;-79
2023/12/13 12:20:26;;;;;;;78.20;43.10;;;;;;;;;;107365;1251;61527;-79
2023/12/13 12:22:53;;;;;;;120.40;64.50;;;;;;;;;;107327;1251;60698;-79
2023/12/13 12:25:20;;;;;;;285.40;125.90;;;;;;;;;;107201;1250;59813;-79
2023/12/13 12:27:48;;;;;;;286.90;129.60;;;;;;;;;;107206;1253;59878;-79
2023/12/13 12:30:18;;;;;;;95.50;48.20;;;;;;;;;;107322;1254;60915;-79
2023/12/13 12:32:44;;;;;;;146.50;68.80;;;;;;;;;;107442;1253;62764;-79
2023/12/13 12:35:11;;;;;;;456.70;201.10;;;;;;;;;;107254;1250;59946;-79
2023/12/13 12:37:37;;;;;;;416.90;188.70;;;;;;;;;;107287;1251;60939;-79
2023/12/13 12:40:04;;;;;;;428.10;194.00;;;;;;;;;;107305;1251;59262;-79
2023/12/13 12:42:31;;;;;;;75.40;44.50;;;;;;;;;;107544;1251;59123;-79
2023/12/13 12:44:58;;;;;;;83.50;48.60;;;;;;;;;;108856;1251;62717;-77
2023/12/13 12:47:24;;;;;;;100.70;61.10;;;;;;;;;;109417;1250;58938;-74
2023/12/13 12:49:52;;;;;;;94.60;64.50;;;;;;;;;;109460;1251;59201;-74
2023/12/13 12:52:22;;;;;;;82.00;50.60;;;;;;;;;;109451;1251;59006;-75
2023/12/13 12:54:48;;;;;;;67.30;40.80;;;;;;;;;;108298;1250;59797;-78
2023/12/13 12:57:16;;;;;;;59.60;35.40;;;;;;;;;;107353;1251;62324;-78
2023/12/13 12:59:42;;;;;;;52.30;32.50;;;;;;;;;;107350;1250;59802;-81
2023/12/13 13:02:09;;;;;;;62.70;37.00;;;;;;;;;;107429;1251;60763;-79
2023/12/13 13:04:36;;;;;;;59.20;35.40;;;;;;;;;;107226;1251;60733;-81
2023/12/13 13:07:05;;;;;;;47.40;30.00;;;;;;;;;;107657;1251;60858;-80
2023/12/13 13:09:32;;;;;;;51.90;33.70;;;;;;;;;;107542;1251;61589;-81
2023/12/13 13:11:58;;;;;;;47.10;29.60;;;;;;;;;;107918;1251;59559;-80
2023/12/13 13:14:25;;;;;;;48.80;29.10;;;;;;;;;;107654;1251;59683;-80
2023/12/13 13:16:52;;;;;;;48.10;29.00;;;;;;;;;;107642;1251;61488;-81
2023/12/13 13:19:18;;;;;;;56.90;36.60;;;;;;;;;;107511;1250;60814;-81
2023/12/13 13:21:45;;;;;;;96.70;57.30;;;;;;;;;;107929;1251;59168;-81
2023/12/13 13:24:11;;;;;;;109.70;70.50;;;;;;;;;;108011;1251;60761;-81
2023/12/13 13:26:38;;;;;;;120.90;75.60;;;;;;;;;;107814;1251;59733;-80
2023/12/13 13:29:04;;;;;;;94.70;59.70;;;;;;;;;;108461;1251;59442;-80
2023/12/13 13:31:31;;;;;;;80.60;50.60;;;;;;;;;;109594;1250;59011;-81
2023/12/13 13:33:57;;;;;;;90.80;57.00;;;;;;;;;;109558;1250;58902;-80
2023/12/13 13:36:24;;;;;;;99.00;63.00;;;;;;;;;;108645;1251;59277;-81
2023/12/13 13:38:50;;;;;;;98.20;60.50;;;;;;;;;;108954;1251;59089;-80
2023/12/13 13:41:17;;;;;;;108.10;70.90;;;;;;;;;;109539;1251;58896;-80
2023/12/13 13:43:43;;;;;;;117.30;73.20;;;;;;;;;;109517;1251;58933;-81
2023/12/13 13:46:10;;;;;;;125.50;82.10;;;;;;;;;;109549;1251;59822;-81
2023/12/13 13:48:37;;;;;;;139.80;85.90;;;;;;;;;;109579;1250;59502;-81
2023/12/13 13:51:04;;;;;;;114.80;75.60;;;;;;;;;;109500;1251;60377;-80
2023/12/13 13:53:30;;;;;;;108.60;68.70;;;;;;;;;;109499;1251;58916;-81